createdAt,value
2023-04-10T00:04:38.394Z,30
2023-04-10T00:07:33.766Z,30
2023-04-10T00:10:08.200Z,31
2023-04-10T00:15:38.391Z,34
2023-04-10T00:21:08.552Z,37
2023-04-10T00:26:38.725Z,30
2023-04-10T00:32:08.902Z,37
2023-04-10T00:37:39.082Z,42
2023-04-10T00:43:09.230Z,45
2023-04-10T00:48:39.412Z,52
2023-04-10T00:54:09.566Z,53
2023-04-10T00:59:39.738Z,46
2023-04-10T01:05:09.894Z,30
2023-04-10T01:07:39.112Z,30
2023-04-10T01:10:40.053Z,26
2023-04-10T01:16:10.225Z,25
2023-04-10T01:21:40.392Z,28
2023-04-10T01:27:10.558Z,26
2023-04-10T01:32:40.730Z,32
2023-04-10T01:38:10.887Z,30
2023-04-10T01:43:46.071Z,27
2023-04-10T01:49:11.212Z,32
2023-04-10T01:54:41.408Z,38
2023-04-10T02:07:44.645Z,38
2023-04-10T02:11:11.904Z,40
2023-04-10T02:16:42.093Z,53
2023-04-10T02:22:12.217Z,54
2023-04-10T02:27:42.408Z,42
2023-04-10T02:38:42.718Z,43
2023-04-10T02:44:12.904Z,48
2023-04-10T02:49:43.094Z,50
2023-04-10T02:55:13.215Z,52
2023-04-10T03:00:43.394Z,44
2023-04-10T03:05:50.846Z,44
2023-04-10T03:11:43.720Z,38
2023-04-10T03:17:13.886Z,42
2023-04-10T03:22:44.056Z,39
2023-04-10T03:28:14.216Z,41
2023-04-10T03:33:44.512Z,39
2023-04-10T03:44:44.708Z,46
2023-04-10T03:50:14.883Z,40
2023-04-10T04:01:15.235Z,38
2023-04-10T04:05:49.367Z,38
2023-04-10T04:12:15.581Z,49
2023-04-10T04:17:45.839Z,42
2023-04-10T04:23:15.922Z,46
2023-04-10T04:28:46.132Z,39
2023-04-10T04:34:16.370Z,45
2023-04-10T04:39:46.497Z,48
2023-04-10T04:45:16.574Z,49
2023-04-10T04:50:46.771Z,45
2023-04-10T04:56:16.939Z,48
2023-04-10T05:01:47.323Z,44
2023-04-10T05:05:54.887Z,44
2023-04-10T05:07:17.234Z,46
2023-04-10T05:12:47.421Z,40
2023-04-10T05:29:22.986Z,42
2023-04-10T05:34:48.184Z,46
2023-04-10T05:40:18.235Z,42
2023-04-10T05:45:48.422Z,41
2023-04-10T05:51:18.587Z,44
2023-04-10T05:56:48.766Z,41
2023-04-10T06:02:19.181Z,45
2023-04-10T06:06:00.346Z,45
2023-04-10T06:07:49.116Z,42
2023-04-10T06:18:49.575Z,38
2023-04-10T06:24:19.652Z,40
2023-04-10T06:29:49.860Z,39
2023-04-10T06:35:20.005Z,32
2023-04-10T06:40:50.085Z,37
2023-04-10T06:46:20.417Z,34
2023-04-10T06:51:50.419Z,32
2023-04-10T06:57:20.787Z,38
2023-04-10T07:02:50.940Z,33
2023-04-10T07:06:05.848Z,33
2023-04-10T07:13:52.924Z,28
2023-04-10T07:30:25.233Z,26
2023-04-10T07:35:55.446Z,20
2023-04-10T07:41:25.574Z,22
2023-04-10T07:46:55.769Z,21
2023-04-10T07:52:25.902Z,20
2023-04-10T07:57:56.116Z,23
2023-04-10T08:03:26.409Z,25
2023-04-10T08:06:11.422Z,25
2023-04-10T08:08:56.589Z,19
2023-04-10T08:14:26.806Z,21
2023-04-10T08:19:56.711Z,16
2023-04-10T08:25:26.865Z,19
2023-04-10T08:30:57.143Z,16
2023-04-10T08:36:27.521Z,17
2023-04-10T08:47:27.599Z,16
2023-04-10T08:52:57.857Z,17
2023-04-10T09:03:58.755Z,14
2023-04-10T09:06:16.864Z,14
2023-04-10T09:20:28.542Z,12
2023-04-10T09:31:28.994Z,14
2023-04-10T09:42:29.197Z,16
2023-04-10T09:47:59.396Z,14
2023-04-10T10:04:30.026Z,13
2023-04-10T10:06:22.375Z,13
2023-04-10T10:09:59.984Z,12
2023-04-10T10:15:30.155Z,13
2023-04-10T10:21:00.309Z,10
2023-04-10T10:32:01.732Z,12
2023-04-10T10:43:00.998Z,11
2023-04-10T10:59:31.605Z,12
2023-04-10T11:06:27.865Z,12
2023-04-10T11:16:01.996Z,10
2023-04-10T11:21:32.230Z,11
2023-04-10T11:43:32.927Z,12
2023-04-10T11:49:03.332Z,13
2023-04-10T11:54:33.607Z,11
2023-04-10T12:00:03.289Z,8
2023-04-10T12:05:33.406Z,9
2023-04-10T12:06:33.428Z,9
2023-04-10T12:27:34.068Z,7
2023-04-10T12:33:04.310Z,9
2023-04-10T12:38:34.530Z,10
2023-04-10T12:44:04.667Z,14
2023-04-10T12:49:34.727Z,9
2023-04-10T12:55:04.850Z,7
2023-04-10T13:00:35.028Z,8
2023-04-10T13:06:05.208Z,9
2023-04-10T13:06:38.936Z,9
2023-04-10T13:17:05.516Z,8
2023-04-10T13:28:05.864Z,7
2023-04-10T13:44:36.379Z,8
2023-04-10T13:50:06.490Z,7
2023-04-10T14:01:06.956Z,8
2023-04-10T14:06:44.361Z,6
2023-04-10T14:12:07.165Z,10
2023-04-10T14:17:37.376Z,15
2023-04-10T14:23:07.576Z,10
2023-04-10T14:28:37.738Z,8
2023-04-10T14:34:07.985Z,6
2023-04-10T14:39:37.979Z,7
2023-04-10T14:45:08.120Z,6
2023-04-10T14:50:38.295Z,7
2023-04-10T14:56:09.176Z,6
2023-04-10T15:01:38.902Z,5
2023-04-10T15:06:54.888Z,5
2023-04-10T15:12:39.010Z,6
2023-04-10T15:23:39.285Z,7
2023-04-10T15:29:09.458Z,4
2023-04-10T15:34:39.663Z,5
2023-04-10T15:40:09.751Z,10
2023-04-10T15:45:39.908Z,5
2023-04-10T15:56:40.263Z,6
2023-04-10T16:02:10.627Z,5
2023-04-10T16:06:55.414Z,5
2023-04-10T16:13:10.763Z,8
2023-04-10T16:18:40.930Z,5
2023-04-10T16:24:11.132Z,6
2023-04-10T16:51:41.893Z,5
2023-04-10T16:57:12.106Z,6
2023-04-10T17:07:00.879Z,6
2023-04-10T17:08:12.346Z,7
2023-04-10T17:13:42.533Z,10
2023-04-10T17:19:12.707Z,6
2023-04-10T17:52:13.650Z,8
2023-04-10T17:57:43.838Z,5
2023-04-10T18:07:06.451Z,5
2023-04-10T18:08:44.135Z,8
2023-04-10T18:14:14.360Z,6
2023-04-10T18:19:44.488Z,8
2023-04-10T18:25:14.641Z,5
2023-04-10T18:30:44.866Z,6
2023-04-10T18:41:45.145Z,8
2023-04-10T18:47:15.418Z,5
2023-04-10T19:07:11.870Z,5
2023-04-10T19:14:46.145Z,6
2023-04-10T19:25:46.401Z,5
2023-04-10T19:42:17.060Z,6
2023-04-10T19:47:47.253Z,5
2023-04-10T20:07:17.397Z,5
2023-04-10T20:09:47.726Z,6
2023-04-10T20:15:17.861Z,7
2023-04-10T20:20:48.032Z,5
2023-04-10T20:31:48.397Z,6
2023-04-10T20:48:18.850Z,5
2023-04-10T20:53:49.002Z,6
2023-04-10T20:59:19.218Z,7
2023-04-10T21:04:49.520Z,4
2023-04-10T21:07:22.920Z,4
2023-04-10T21:10:19.499Z,5
2023-04-10T21:26:50.026Z,4
2023-04-10T21:37:50.387Z,5
2023-04-10T21:48:50.719Z,8
2023-04-10T21:54:20.902Z,4
2023-04-10T21:59:51.084Z,7
2023-04-10T22:05:21.107Z,5
2023-04-10T22:07:28.416Z,5
2023-04-10T22:27:21.806Z,4
2023-04-10T22:32:51.991Z,6
2023-04-10T22:54:52.657Z,4
2023-04-10T23:00:22.730Z,5
2023-04-10T23:07:33.990Z,5
2023-04-10T23:11:23.049Z,4
2023-04-10T23:22:23.432Z,5
2023-04-10T23:27:53.569Z,6
2023-04-10T23:38:54.171Z,7
2023-04-10T23:44:24.092Z,5
2023-04-10T23:55:24.398Z,6
